createdAt,value
2022-09-23T00:00:19.103Z,7.8
2022-09-23T00:01:19.247Z,7.8
2022-09-23T00:02:19.125Z,7.8
2022-09-23T00:03:19.119Z,7.8
2022-09-23T00:04:19.088Z,7.7
2022-09-23T00:05:19.109Z,7.7
2022-09-23T00:06:19.103Z,7.7
2022-09-23T00:07:19.124Z,7.7
2022-09-23T00:08:19.309Z,7.7
2022-09-23T00:09:19.102Z,7.7
2022-09-23T00:10:19.095Z,7.7
2022-09-23T00:11:19.089Z,7.7
2022-09-23T00:12:19.092Z,7.7
2022-09-23T00:13:19.097Z,7.7
2022-09-23T00:14:19.099Z,7.7
2022-09-23T00:15:19.093Z,7.6
2022-09-23T00:16:19.147Z,7.6
2022-09-23T00:17:19.093Z,7.6
2022-09-23T00:18:19.215Z,7.6
2022-09-23T00:19:19.148Z,7.6
2022-09-23T00:20:19.156Z,7.6
2022-09-23T00:21:19.538Z,7.6
2022-09-23T00:22:19.727Z,7.6
2022-09-23T00:23:20.132Z,7.6
2022-09-23T00:24:19.400Z,7.5
2022-09-23T00:25:19.728Z,7.5
2022-09-23T00:26:19.836Z,7.5
2022-09-23T00:27:19.085Z,7.5
2022-09-23T00:28:19.360Z,7.5
2022-09-23T00:29:19.128Z,7.5
2022-09-23T00:30:19.159Z,7.5
2022-09-23T00:31:19.267Z,7.5
2022-09-23T00:32:19.094Z,7.5
2022-09-23T00:33:19.087Z,7.5
2022-09-23T00:34:19.092Z,7.5
2022-09-23T00:35:19.139Z,7.5
2022-09-23T00:36:19.115Z,7.5
2022-09-23T00:37:19.098Z,7.5
2022-09-23T00:38:19.097Z,7.5
2022-09-23T00:39:19.092Z,7.5
2022-09-23T00:40:19.153Z,7.5
2022-09-23T00:41:19.105Z,7.5
2022-09-23T00:42:19.104Z,7.6
2022-09-23T00:43:19.106Z,7.6
2022-09-23T00:44:19.088Z,7.6
2022-09-23T00:45:19.109Z,7.6
2022-09-23T00:46:19.187Z,7.6
2022-09-23T00:47:19.112Z,7.6
2022-09-23T00:48:19.107Z,7.6
2022-09-23T00:49:19.085Z,7.6
2022-09-23T00:50:19.105Z,7.6
2022-09-23T00:51:19.115Z,7.7
2022-09-23T00:52:19.099Z,7.6
2022-09-23T00:53:19.110Z,7.7
2022-09-23T00:54:19.080Z,7.7
2022-09-23T00:55:19.105Z,7.6
2022-09-23T00:56:19.108Z,7.6
2022-09-23T00:57:19.092Z,7.6
2022-09-23T00:58:19.117Z,7.6
2022-09-23T00:59:19.097Z,7.6
2022-09-23T01:00:19.091Z,7.6
2022-09-23T01:01:19.234Z,7.7
2022-09-23T01:02:19.148Z,7.7
2022-09-23T01:03:19.103Z,7.7
2022-09-23T01:04:19.089Z,7.7
2022-09-23T01:05:19.102Z,7.7
2022-09-23T01:06:19.126Z,7.7
2022-09-23T01:07:19.097Z,7.7
2022-09-23T01:08:19.106Z,7.7
2022-09-23T01:09:19.095Z,7.7
2022-09-23T01:10:19.110Z,7.7
2022-09-23T01:11:19.100Z,7.7
2022-09-23T01:12:19.097Z,7.6
2022-09-23T01:13:19.113Z,7.6
2022-09-23T01:14:19.102Z,7.6
2022-09-23T01:15:19.150Z,7.6
2022-09-23T01:16:19.145Z,7.6
2022-09-23T01:17:19.097Z,7.5
2022-09-23T01:18:19.093Z,7.5
2022-09-23T01:19:19.095Z,7.5
2022-09-23T01:20:19.087Z,7.5
2022-09-23T01:21:19.089Z,7.5
2022-09-23T01:22:19.125Z,7.5
2022-09-23T01:23:19.098Z,7.4
2022-09-23T01:24:19.107Z,7.4
2022-09-23T01:25:19.113Z,7.4
2022-09-23T01:26:19.102Z,7.4
2022-09-23T01:27:19.166Z,7.4
2022-09-23T01:28:19.066Z,7.4
2022-09-23T01:29:19.196Z,7.4
2022-09-23T01:30:19.106Z,7.3
2022-09-23T01:31:19.136Z,7.3
2022-09-23T01:32:19.363Z,7.3
2022-09-23T01:33:19.094Z,7.3
2022-09-23T01:34:19.096Z,7.3
2022-09-23T01:35:19.099Z,7.3
2022-09-23T01:36:19.132Z,7.3
2022-09-23T01:37:19.101Z,7.3
2022-09-23T01:38:19.089Z,7.3
2022-09-23T01:39:19.097Z,7.3
2022-09-23T01:40:19.124Z,7.3
2022-09-23T01:41:19.125Z,7.3
2022-09-23T01:42:19.094Z,7.3
2022-09-23T01:43:19.087Z,7.3
2022-09-23T01:44:19.089Z,7.3
2022-09-23T01:45:19.172Z,7.3
2022-09-23T01:46:19.083Z,7.3
2022-09-23T01:47:19.209Z,7.4
2022-09-23T01:48:19.159Z,7.4
2022-09-23T01:49:19.075Z,7.4
2022-09-23T01:50:19.094Z,7.4
2022-09-23T01:51:19.082Z,7.4
2022-09-23T01:52:19.333Z,7.4
2022-09-23T01:53:19.109Z,7.5
2022-09-23T01:54:19.279Z,7.5
2022-09-23T01:55:19.474Z,7.5
2022-09-23T01:56:19.427Z,7.5
2022-09-23T01:57:19.066Z,7.5
2022-09-23T01:58:19.110Z,7.5
2022-09-23T01:59:19.242Z,7.6
2022-09-23T02:00:19.111Z,7.6
2022-09-23T02:01:19.196Z,7.6
2022-09-23T02:02:19.267Z,7.6
2022-09-23T02:03:19.381Z,7.6
2022-09-23T02:04:19.158Z,7.7
2022-09-23T02:05:19.446Z,7.7
2022-09-23T02:06:19.059Z,7.7
2022-09-23T02:07:19.076Z,7.7
2022-09-23T02:08:19.085Z,7.7
2022-09-23T02:09:19.662Z,7.7
2022-09-23T02:10:19.170Z,7.7
2022-09-23T02:11:19.100Z,7.7
2022-09-23T02:12:19.145Z,7.7
2022-09-23T02:13:19.413Z,7.7
2022-09-23T02:14:19.159Z,7.7
2022-09-23T02:15:19.165Z,7.7
2022-09-23T02:16:19.470Z,7.7
2022-09-23T02:17:19.115Z,7.7
2022-09-23T02:18:19.098Z,7.7
2022-09-23T02:19:19.098Z,7.7
2022-09-23T02:20:19.401Z,7.7
2022-09-23T02:21:19.094Z,7.7
2022-09-23T02:22:19.109Z,7.7
2022-09-23T02:23:19.094Z,7.7
2022-09-23T02:24:19.116Z,7.7
2022-09-23T02:25:19.128Z,7.7
2022-09-23T02:26:19.096Z,7.8
2022-09-23T02:27:19.067Z,7.8
2022-09-23T02:28:19.151Z,7.8
2022-09-23T02:29:19.133Z,7.8
2022-09-23T02:30:19.121Z,7.8
2022-09-23T02:31:19.340Z,7.8
2022-09-23T02:32:19.098Z,7.8
2022-09-23T02:33:19.102Z,7.8
2022-09-23T02:34:19.110Z,7.8
2022-09-23T02:35:19.101Z,7.7
2022-09-23T02:36:19.101Z,7.8
2022-09-23T02:37:19.096Z,7.8
2022-09-23T02:38:19.129Z,7.8
2022-09-23T02:39:19.109Z,7.8
2022-09-23T02:40:19.173Z,7.7
2022-09-23T02:41:19.117Z,7.7
2022-09-23T02:42:19.323Z,7.7
2022-09-23T02:43:19.093Z,7.7
2022-09-23T02:44:19.120Z,7.7
2022-09-23T02:45:19.102Z,7.7
2022-09-23T02:46:19.157Z,7.7
2022-09-23T02:47:19.102Z,7.7
2022-09-23T02:48:19.092Z,7.7
2022-09-23T02:49:19.121Z,7.7
2022-09-23T02:50:19.093Z,7.7
2022-09-23T02:51:19.109Z,7.7
2022-09-23T02:52:19.114Z,7.7
2022-09-23T02:53:19.109Z,7.7
2022-09-23T02:54:19.116Z,7.7
2022-09-23T02:55:19.091Z,7.7
2022-09-23T02:56:19.117Z,7.7
2022-09-23T02:57:19.097Z,7.7
2022-09-23T02:58:19.089Z,7.7
2022-09-23T02:59:19.095Z,7.7
2022-09-23T03:00:19.097Z,7.7
2022-09-23T03:01:19.164Z,7.7
2022-09-23T03:02:19.157Z,7.7
2022-09-23T03:03:19.097Z,7.7
2022-09-23T03:04:19.109Z,7.7
2022-09-23T03:05:19.096Z,7.7
2022-09-23T03:06:19.109Z,7.7
2022-09-23T03:07:19.114Z,7.7
2022-09-23T03:08:19.098Z,7.7
2022-09-23T03:09:19.093Z,7.7
2022-09-23T03:10:19.087Z,7.7
2022-09-23T03:11:19.097Z,7.7
2022-09-23T03:12:19.089Z,7.7
2022-09-23T03:13:19.096Z,7.6
2022-09-23T03:14:19.115Z,7.6
2022-09-23T03:15:19.101Z,7.6
2022-09-23T03:16:19.148Z,7.6
2022-09-23T03:17:19.095Z,7.6
2022-09-23T03:18:19.101Z,7.6
2022-09-23T03:19:19.101Z,7.6
2022-09-23T03:20:19.117Z,7.6
2022-09-23T03:21:19.101Z,7.6
2022-09-23T03:22:19.106Z,7.6
2022-09-23T03:23:19.095Z,7.6
2022-09-23T03:24:19.107Z,7.6
2022-09-23T03:25:19.118Z,7.6
2022-09-23T03:26:19.097Z,7.6
2022-09-23T03:27:19.094Z,7.6
2022-09-23T03:28:19.093Z,7.6
2022-09-23T03:29:19.095Z,7.6
2022-09-23T03:30:19.096Z,7.5
2022-09-23T03:31:19.159Z,7.5
2022-09-23T03:32:19.082Z,7.6
2022-09-23T03:33:19.061Z,7.6
2022-09-23T03:34:19.286Z,7.6
2022-09-23T03:35:19.591Z,7.5
2022-09-23T03:36:20.218Z,7.5
2022-09-23T03:37:20.480Z,7.5
2022-09-23T03:38:20.164Z,7.5
2022-09-23T03:39:19.762Z,7.5
2022-09-23T03:40:19.153Z,7.5
2022-09-23T03:41:19.077Z,7.5
2022-09-23T03:42:19.316Z,7.5
2022-09-23T03:43:19.124Z,7.5
2022-09-23T03:44:19.097Z,7.5
2022-09-23T03:45:19.104Z,7.6
2022-09-23T03:46:19.110Z,7.6
2022-09-23T03:47:19.111Z,7.6
2022-09-23T03:48:19.126Z,7.6
2022-09-23T03:49:19.096Z,7.6
2022-09-23T03:50:19.124Z,7.6
2022-09-23T03:51:19.108Z,7.6
2022-09-23T03:52:19.100Z,7.6
2022-09-23T03:53:19.131Z,7.6
2022-09-23T03:54:19.093Z,7.6
2022-09-23T03:55:19.110Z,7.6
2022-09-23T03:56:19.098Z,7.6
2022-09-23T03:57:19.119Z,7.6
2022-09-23T03:58:19.120Z,7.6
2022-09-23T03:59:19.108Z,7.6
2022-09-23T04:00:19.223Z,7.6
2022-09-23T04:01:19.135Z,7.6
2022-09-23T04:02:19.143Z,7.7
2022-09-23T04:03:19.072Z,7.7
2022-09-23T04:04:19.091Z,7.7
2022-09-23T04:05:19.096Z,7.7
2022-09-23T04:06:19.124Z,7.7
2022-09-23T04:07:19.081Z,7.6
2022-09-23T04:08:19.096Z,7.7
2022-09-23T04:09:19.067Z,7.7
2022-09-23T04:10:19.102Z,7.7
2022-09-23T04:11:19.306Z,7.7
2022-09-23T04:12:19.074Z,7.7
2022-09-23T04:13:19.216Z,7.7
2022-09-23T04:14:19.077Z,7.7
2022-09-23T04:15:19.181Z,7.7
2022-09-23T04:16:19.139Z,7.7
2022-09-23T04:17:19.090Z,7.7
2022-09-23T04:18:19.100Z,7.7
2022-09-23T04:19:19.424Z,7.7
2022-09-23T04:20:19.603Z,7.7
2022-09-23T04:21:19.889Z,7.7
2022-09-23T04:22:20.435Z,7.7
2022-09-23T04:23:19.089Z,7.7
2022-09-23T04:24:19.185Z,7.7
2022-09-23T04:25:19.469Z,7.7
2022-09-23T04:26:19.252Z,7.7
2022-09-23T04:27:19.365Z,7.7
2022-09-23T04:28:19.120Z,7.7
2022-09-23T04:29:20.142Z,7.7
2022-09-23T04:30:19.113Z,7.7
2022-09-23T04:31:19.190Z,7.7
2022-09-23T04:32:19.110Z,7.7
2022-09-23T04:33:19.092Z,7.7
2022-09-23T04:34:19.099Z,7.7
2022-09-23T04:35:19.099Z,7.7
2022-09-23T04:36:19.132Z,7.7
2022-09-23T04:37:19.087Z,7.7
2022-09-23T04:38:19.115Z,7.7
2022-09-23T04:39:19.098Z,7.7
2022-09-23T04:40:19.155Z,7.7
2022-09-23T04:41:19.101Z,7.7
2022-09-23T04:42:19.184Z,7.7
2022-09-23T04:43:19.075Z,7.7
2022-09-23T04:44:19.207Z,7.7
2022-09-23T04:45:19.105Z,7.7
2022-09-23T04:46:19.166Z,7.7
2022-09-23T04:47:19.347Z,7.7
2022-09-23T04:48:19.111Z,7.7
2022-09-23T04:49:19.107Z,7.7
2022-09-23T04:50:19.248Z,7.7
2022-09-23T04:51:19.225Z,7.7
2022-09-23T04:52:19.164Z,7.7
2022-09-23T04:53:19.092Z,7.7
2022-09-23T04:54:19.103Z,7.7
2022-09-23T04:55:19.090Z,7.7
2022-09-23T04:56:19.131Z,7.6
2022-09-23T04:57:19.091Z,7.6
2022-09-23T04:58:19.101Z,7.6
2022-09-23T04:59:19.101Z,7.6
2022-09-23T05:00:19.109Z,7.5
2022-09-23T05:01:19.119Z,7.5
2022-09-23T05:02:19.163Z,7.5
2022-09-23T05:03:19.131Z,7.4
2022-09-23T05:04:19.095Z,7.4
2022-09-23T05:05:19.095Z,7.4
2022-09-23T05:06:19.107Z,7.3
2022-09-23T05:07:19.113Z,7.3
2022-09-23T05:08:19.083Z,7.3
2022-09-23T05:09:19.092Z,7.2
2022-09-23T05:10:19.127Z,7.2
2022-09-23T05:11:19.083Z,7.2
2022-09-23T05:12:19.099Z,7.2
2022-09-23T05:13:19.087Z,7.2
2022-09-23T05:14:19.087Z,7.1
2022-09-23T05:15:19.116Z,7.1
2022-09-23T05:16:19.196Z,7.1
2022-09-23T05:17:19.110Z,7
2022-09-23T05:18:20.806Z,7
2022-09-23T05:19:19.105Z,7
2022-09-23T05:20:19.125Z,6.9
2022-09-23T05:21:19.095Z,6.9
2022-09-23T05:22:19.108Z,6.9
2022-09-23T05:23:19.108Z,6.9
2022-09-23T05:24:19.122Z,6.8
2022-09-23T05:25:19.167Z,6.8
2022-09-23T05:26:19.151Z,6.8
2022-09-23T05:27:19.294Z,6.8
2022-09-23T05:28:19.457Z,6.7
2022-09-23T05:29:19.252Z,6.7
2022-09-23T05:30:19.112Z,6.7
2022-09-23T05:31:20.207Z,6.7
2022-09-23T05:32:19.097Z,6.7
2022-09-23T05:33:19.091Z,6.7
2022-09-23T05:34:19.100Z,6.7
2022-09-23T05:35:19.335Z,6.6
2022-09-23T05:36:19.113Z,6.6
2022-09-23T05:37:19.092Z,6.6
2022-09-23T05:38:19.102Z,6.6
2022-09-23T05:39:19.099Z,6.6
2022-09-23T05:40:19.158Z,6.6
2022-09-23T05:41:19.097Z,6.7
2022-09-23T05:42:19.094Z,6.7
2022-09-23T05:43:19.164Z,6.7
2022-09-23T05:44:19.083Z,6.7
2022-09-23T05:45:19.105Z,6.7
2022-09-23T05:46:19.447Z,6.8
2022-09-23T05:47:19.389Z,6.8
2022-09-23T05:48:19.099Z,6.8
2022-09-23T05:49:19.099Z,6.9
2022-09-23T05:50:19.091Z,6.9
2022-09-23T05:51:19.100Z,6.9
2022-09-23T05:52:19.089Z,7
2022-09-23T05:53:19.095Z,7
2022-09-23T05:54:19.108Z,7.1
2022-09-23T05:55:19.090Z,7.1
2022-09-23T05:56:19.117Z,7.1
2022-09-23T05:57:19.158Z,7.2
2022-09-23T05:58:19.106Z,7.2
2022-09-23T05:59:19.104Z,7.2
2022-09-23T06:00:19.094Z,7.3
2022-09-23T06:01:19.121Z,7.3
2022-09-23T06:02:19.152Z,7.3
2022-09-23T06:03:19.116Z,7.4
2022-09-23T06:04:19.090Z,7.4
2022-09-23T06:05:19.106Z,7.5
2022-09-23T06:06:19.094Z,7.5
2022-09-23T06:07:19.206Z,7.6
2022-09-23T06:08:19.107Z,7.6
2022-09-23T06:09:19.083Z,7.7
2022-09-23T06:10:19.079Z,7.7
2022-09-23T06:11:19.094Z,7.7
2022-09-23T06:12:19.089Z,7.7
2022-09-23T06:13:19.103Z,7.7
2022-09-23T06:14:19.110Z,7.8
2022-09-23T06:15:19.101Z,7.8
2022-09-23T06:16:19.150Z,7.9
2022-09-23T06:17:19.189Z,7.9
2022-09-23T06:18:19.104Z,8
2022-09-23T06:19:19.094Z,8
2022-09-23T06:20:19.108Z,8.1
2022-09-23T06:21:19.097Z,8.1
2022-09-23T06:22:19.099Z,8.2
2022-09-23T06:23:20.428Z,8.2
2022-09-23T06:24:21.493Z,8.3
2022-09-23T06:25:19.096Z,8.3
2022-09-23T06:26:19.094Z,8.3
2022-09-23T06:27:19.100Z,8.4
2022-09-23T06:28:19.112Z,8.4
2022-09-23T06:29:19.100Z,8.4
2022-09-23T06:30:19.099Z,8.5
2022-09-23T06:31:19.127Z,8.5
2022-09-23T06:32:19.095Z,8.6
2022-09-23T06:33:29.330Z,8.6
2022-09-23T06:34:19.357Z,8.7
2022-09-23T06:35:24.386Z,8.8
2022-09-23T06:36:37.436Z,8.8
2022-09-23T06:37:20.588Z,8.9
2022-09-23T06:38:19.102Z,9
2022-09-23T06:39:19.423Z,9
2022-09-23T06:40:19.338Z,9
2022-09-23T06:41:19.450Z,9
2022-09-23T06:42:19.685Z,9.1
2022-09-23T06:43:20.248Z,9.1
2022-09-23T06:44:19.691Z,9.2
2022-09-23T06:45:19.915Z,9.2
2022-09-23T06:46:19.251Z,9.3
2022-09-23T06:47:19.403Z,9.3
2022-09-23T06:48:20.462Z,9.4
2022-09-23T06:49:19.472Z,9.4
2022-09-23T06:50:19.873Z,9.5
2022-09-23T06:51:19.613Z,9.6
2022-09-23T06:52:19.139Z,9.7
2022-09-23T06:53:19.262Z,9.7
2022-09-23T06:54:19.526Z,9.8
2022-09-23T06:55:19.298Z,9.8
2022-09-23T06:56:19.294Z,9.8
2022-09-23T06:57:19.539Z,9.9
2022-09-23T06:58:19.288Z,9.9
2022-09-23T06:59:19.654Z,10
2022-09-23T07:00:19.126Z,10.1
2022-09-23T07:01:19.485Z,10.1
2022-09-23T07:02:19.265Z,10.2
2022-09-23T07:03:19.230Z,10.2
2022-09-23T07:04:19.092Z,10.2
2022-09-23T07:05:19.100Z,10.3
2022-09-23T07:06:19.090Z,10.3
2022-09-23T07:07:19.096Z,10.4
2022-09-23T07:08:19.111Z,10.4
2022-09-23T07:09:19.094Z,10.4
2022-09-23T07:10:19.088Z,10.5
2022-09-23T07:11:19.097Z,10.5
2022-09-23T07:12:19.102Z,10.5
2022-09-23T07:13:19.110Z,10.5
2022-09-23T07:14:19.102Z,10.6
2022-09-23T07:15:19.099Z,10.6
2022-09-23T07:16:19.147Z,10.6
2022-09-23T07:17:19.088Z,10.6
2022-09-23T07:18:19.096Z,10.7
2022-09-23T07:19:19.091Z,10.7
2022-09-23T07:20:19.092Z,10.7
2022-09-23T07:21:19.113Z,10.8
2022-09-23T07:22:19.102Z,10.8
2022-09-23T07:23:19.133Z,10.9
2022-09-23T07:24:19.094Z,11
2022-09-23T07:25:19.321Z,11
2022-09-23T07:26:19.124Z,11.1
2022-09-23T07:27:19.094Z,11.1
2022-09-23T07:28:19.086Z,11.2
2022-09-23T07:29:19.096Z,11.2
2022-09-23T07:30:24.180Z,11.3
2022-09-23T07:31:25.450Z,11.3
2022-09-23T07:32:19.120Z,11.4
2022-09-23T07:33:27.834Z,11.4
2022-09-23T07:34:19.095Z,11.4
2022-09-23T07:35:19.106Z,11.5
2022-09-23T07:36:19.100Z,11.6
2022-09-23T07:37:19.182Z,11.6
2022-09-23T07:38:19.132Z,11.7
2022-09-23T07:39:19.091Z,11.7
2022-09-23T07:40:19.111Z,11.7
2022-09-23T07:41:19.088Z,11.8
2022-09-23T07:42:19.089Z,11.8
2022-09-23T07:43:19.116Z,11.9
2022-09-23T07:44:19.097Z,12
2022-09-23T07:45:19.111Z,12.1
2022-09-23T07:46:19.139Z,12.1
2022-09-23T07:47:19.106Z,12.2
2022-09-23T07:48:19.119Z,12.3
2022-09-23T07:49:19.101Z,12.3
2022-09-23T07:50:19.095Z,12.4
2022-09-23T07:51:19.082Z,12.5
2022-09-23T07:52:19.105Z,12.6
2022-09-23T07:53:19.088Z,12.6
2022-09-23T07:54:19.093Z,12.7
2022-09-23T07:55:21.060Z,12.8
2022-09-23T07:56:19.094Z,12.9
2022-09-23T07:57:19.163Z,12.9
2022-09-23T07:58:19.293Z,13
2022-09-23T07:59:19.181Z,13.1
2022-09-23T08:00:19.089Z,13.1
2022-09-23T08:01:19.385Z,13.1
2022-09-23T08:02:19.209Z,13.2
2022-09-23T08:03:19.147Z,13.3
2022-09-23T08:04:19.090Z,13.4
2022-09-23T08:05:19.102Z,13.5
2022-09-23T08:06:19.097Z,13.5
2022-09-23T08:07:19.085Z,13.6
2022-09-23T08:08:19.145Z,13.7
2022-09-23T08:09:19.080Z,13.7
2022-09-23T08:10:19.109Z,13.8
2022-09-23T08:11:19.092Z,13.9
2022-09-23T08:12:19.098Z,13.9
2022-09-23T08:13:19.105Z,14
2022-09-23T08:14:19.122Z,14.1
2022-09-23T08:15:19.094Z,14.2
2022-09-23T08:16:19.172Z,14.2
2022-09-23T08:17:19.080Z,14.3
2022-09-23T08:18:19.110Z,14.4
2022-09-23T08:19:19.100Z,14.4
2022-09-23T08:20:19.091Z,14.5
2022-09-23T08:21:19.108Z,14.5
2022-09-23T08:22:19.103Z,14.6
2022-09-23T08:23:19.098Z,14.6
2022-09-23T08:24:19.093Z,14.6
2022-09-23T08:25:20.563Z,14.7
2022-09-23T08:26:21.949Z,14.7
2022-09-23T08:27:19.092Z,14.8
2022-09-23T08:28:19.130Z,14.8
2022-09-23T08:29:19.108Z,14.9
2022-09-23T08:30:19.113Z,14.9
2022-09-23T08:31:19.120Z,14.9
2022-09-23T08:32:19.094Z,15
2022-09-23T08:33:22.588Z,15
2022-09-23T08:34:19.083Z,15.1
2022-09-23T08:35:19.152Z,15.1
2022-09-23T08:36:19.063Z,15.2
2022-09-23T08:37:19.068Z,15.3
2022-09-23T08:38:19.095Z,15.3
2022-09-23T08:39:19.108Z,15.4
2022-09-23T08:40:19.234Z,15.4
2022-09-23T08:41:19.663Z,15.5
2022-09-23T08:42:19.468Z,15.6
2022-09-23T08:43:19.253Z,15.6
2022-09-23T08:44:19.504Z,15.7
2022-09-23T08:45:19.092Z,15.7
2022-09-23T08:46:19.236Z,15.8
2022-09-23T08:47:19.083Z,15.8
2022-09-23T08:48:19.086Z,15.9
2022-09-23T08:49:19.092Z,16
2022-09-23T08:50:19.109Z,16
2022-09-23T08:51:19.108Z,16.1
2022-09-23T08:52:19.283Z,16.1
2022-09-23T08:53:19.097Z,16.2
2022-09-23T08:54:19.094Z,16.2
2022-09-23T08:55:19.160Z,16.2
2022-09-23T08:56:19.099Z,16.2
2022-09-23T08:57:19.089Z,16.3
2022-09-23T08:58:25.209Z,16.3
2022-09-23T08:59:19.086Z,16.4
2022-09-23T09:00:19.144Z,16.4
2022-09-23T09:01:19.110Z,16.4
2022-09-23T09:02:19.526Z,16.4
2022-09-23T09:03:19.092Z,16.4
2022-09-23T09:04:19.107Z,16.4
2022-09-23T09:05:19.091Z,16.5
2022-09-23T09:06:19.093Z,16.5
2022-09-23T09:07:35.562Z,16.5
2022-09-23T09:08:19.092Z,16.5
2022-09-23T09:09:19.094Z,16.6
2022-09-23T09:10:19.096Z,16.6
2022-09-23T09:11:19.104Z,16.6
2022-09-23T09:12:19.100Z,16.7
2022-09-23T09:13:19.112Z,16.6
2022-09-23T09:14:19.100Z,16.7
2022-09-23T09:15:19.105Z,16.7
2022-09-23T09:16:31.640Z,16.7
2022-09-23T09:17:19.093Z,16.7
2022-09-23T09:18:19.089Z,16.7
2022-09-23T09:19:19.093Z,16.8
2022-09-23T09:20:19.106Z,16.8
2022-09-23T09:21:19.092Z,16.8
2022-09-23T09:22:19.110Z,16.9
2022-09-23T09:23:19.115Z,16.9
2022-09-23T09:24:19.094Z,16.9
2022-09-23T09:25:19.089Z,17
2022-09-23T09:26:19.091Z,17.2
2022-09-23T09:27:19.095Z,17.3
2022-09-23T09:28:19.095Z,17.4
2022-09-23T09:29:34.653Z,17.5
2022-09-23T09:30:19.100Z,17.5
2022-09-23T09:31:19.124Z,17.6
2022-09-23T09:32:19.096Z,17.7
2022-09-23T09:33:19.138Z,17.7
2022-09-23T09:34:19.103Z,17.8
2022-09-23T09:35:19.094Z,17.9
2022-09-23T09:36:19.089Z,17.9
2022-09-23T09:37:19.102Z,17.9
2022-09-23T09:38:19.087Z,18
2022-09-23T09:39:21.800Z,18
2022-09-23T09:40:19.169Z,18
2022-09-23T09:41:19.091Z,18
2022-09-23T09:42:19.093Z,18.1
2022-09-23T09:43:19.096Z,18.1
2022-09-23T09:44:19.325Z,18.1
2022-09-23T09:45:20.068Z,18.2
2022-09-23T09:46:19.492Z,18.2
2022-09-23T09:47:19.840Z,18.2
2022-09-23T09:48:19.959Z,18.2
2022-09-23T09:49:20.301Z,18.2
2022-09-23T09:50:19.655Z,18.2
2022-09-23T09:51:19.969Z,18.2
2022-09-23T09:52:19.097Z,18.3
2022-09-23T09:53:19.007Z,18.3
2022-09-23T09:54:19.233Z,18.3
2022-09-23T09:55:19.449Z,18.3
2022-09-23T09:56:19.122Z,18.3
2022-09-23T09:57:19.921Z,18.4
2022-09-23T09:58:19.162Z,18.4
2022-09-23T09:59:19.557Z,18.4
2022-09-23T10:00:19.234Z,18.4
2022-09-23T10:01:19.053Z,18.4
2022-09-23T10:02:19.094Z,18.4
2022-09-23T10:03:19.066Z,18.4
2022-09-23T10:04:19.080Z,18.4
2022-09-23T10:05:19.138Z,18.4
2022-09-23T10:06:19.024Z,18.5
2022-09-23T10:07:19.122Z,18.5
2022-09-23T10:08:19.366Z,18.5
2022-09-23T10:09:19.823Z,18.5
2022-09-23T10:10:31.624Z,18.5
2022-09-23T10:11:19.001Z,18.5
2022-09-23T10:12:19.307Z,18.7
2022-09-23T10:13:19.028Z,18.7
2022-09-23T10:14:19.135Z,18.7
2022-09-23T10:15:19.062Z,18.7
2022-09-23T10:16:19.075Z,18.7
2022-09-23T10:17:19.303Z,18.7
2022-09-23T10:18:19.082Z,18.7
2022-09-23T10:19:19.030Z,18.7
2022-09-23T10:20:19.032Z,18.8
2022-09-23T10:21:19.034Z,18.8
2022-09-23T10:22:19.064Z,18.8
2022-09-23T10:23:19.043Z,18.8
2022-09-23T10:24:19.035Z,18.9
2022-09-23T10:25:19.022Z,18.9
2022-09-23T10:26:19.021Z,18.9
2022-09-23T10:27:19.067Z,18.9
2022-09-23T10:28:19.040Z,19
2022-09-23T10:29:19.054Z,19
2022-09-23T10:30:19.050Z,19
2022-09-23T10:31:19.072Z,19.1
2022-09-23T10:32:19.086Z,19.1
2022-09-23T10:33:19.041Z,19.1
2022-09-23T10:34:19.036Z,19.1
2022-09-23T10:35:19.038Z,19.1
2022-09-23T10:36:19.034Z,19.1
2022-09-23T10:37:19.048Z,19.1
2022-09-23T10:38:19.042Z,19.1
2022-09-23T10:39:19.033Z,19.1
2022-09-23T10:40:19.126Z,19.1
2022-09-23T10:41:19.056Z,19.2
2022-09-23T10:42:19.117Z,19.2
2022-09-23T10:43:19.042Z,19.2
2022-09-23T10:44:19.039Z,19.2
2022-09-23T10:45:19.079Z,19.2
2022-09-23T10:46:19.064Z,19.2
2022-09-23T10:47:19.044Z,19.2
2022-09-23T10:48:19.041Z,19.2
2022-09-23T10:49:19.039Z,19.2
2022-09-23T10:50:19.044Z,19.2
2022-09-23T10:51:21.623Z,19.2
2022-09-23T10:52:19.069Z,19.3
2022-09-23T10:53:19.048Z,19.3
2022-09-23T10:54:19.043Z,19.3
2022-09-23T10:55:19.057Z,19.3
2022-09-23T10:56:19.040Z,19.3
2022-09-23T10:57:19.046Z,19.3
2022-09-23T10:58:19.042Z,19.3
2022-09-23T10:59:19.050Z,19.3
2022-09-23T11:00:19.045Z,19.3
2022-09-23T11:01:19.093Z,19.3
2022-09-23T11:02:19.052Z,19.3
2022-09-23T11:03:19.061Z,19.3
2022-09-23T11:04:19.133Z,19.3
2022-09-23T11:05:19.274Z,19.3
2022-09-23T11:06:19.109Z,19.3
2022-09-23T11:07:19.047Z,19.3
2022-09-23T11:08:19.075Z,19.3
2022-09-23T11:09:19.035Z,19.3
2022-09-23T11:10:29.398Z,19.3
2022-09-23T11:11:19.054Z,19.4
2022-09-23T11:12:19.057Z,19.4
2022-09-23T11:13:19.094Z,19.4
2022-09-23T11:14:19.057Z,19.4
2022-09-23T11:15:19.067Z,19.5
2022-09-23T11:16:19.100Z,19.5
2022-09-23T11:17:19.056Z,19.5
2022-09-23T11:18:19.067Z,19.7
2022-09-23T11:19:19.054Z,19.5
2022-09-23T11:20:19.055Z,19.7
2022-09-23T11:21:19.060Z,19.7
2022-09-23T11:22:19.055Z,19.7
2022-09-23T11:23:19.052Z,19.7
2022-09-23T11:24:19.067Z,19.7
2022-09-23T11:25:19.086Z,19.7
2022-09-23T11:26:19.049Z,19.7
2022-09-23T11:27:19.066Z,19.7
2022-09-23T11:28:19.060Z,19.7
2022-09-23T11:29:19.056Z,19.8
2022-09-23T11:30:19.067Z,19.8
2022-09-23T11:31:19.089Z,19.8
2022-09-23T11:32:19.046Z,19.8
2022-09-23T11:33:19.065Z,19.8
2022-09-23T11:34:19.066Z,19.8
2022-09-23T11:35:19.060Z,19.9
2022-09-23T11:36:19.060Z,19.9
2022-09-23T11:37:19.302Z,19.9
2022-09-23T11:38:19.054Z,19.9
2022-09-23T11:39:19.065Z,20
2022-09-23T11:40:19.146Z,19.9
2022-09-23T11:41:19.060Z,20
2022-09-23T11:42:19.050Z,20
2022-09-23T11:43:19.047Z,20
2022-09-23T11:44:19.076Z,20
2022-09-23T11:45:19.089Z,20
2022-09-23T11:46:19.146Z,20
2022-09-23T11:47:19.197Z,20
2022-09-23T11:48:19.175Z,20
2022-09-23T11:49:19.052Z,20
2022-09-23T11:50:19.110Z,20
2022-09-23T11:51:19.384Z,20
2022-09-23T11:52:19.162Z,20.1
2022-09-23T11:53:19.251Z,20
2022-09-23T11:54:20.674Z,20.1
2022-09-23T11:55:22.496Z,20.1
2022-09-23T11:56:28.691Z,20.2
2022-09-23T11:57:19.157Z,20.2
2022-09-23T11:58:24.741Z,20.2
2022-09-23T11:59:22.100Z,20.2
2022-09-23T12:00:19.097Z,20.2
2022-09-23T12:01:24.446Z,20.2
2022-09-23T12:02:20.929Z,20.3
2022-09-23T12:03:19.144Z,20.3
2022-09-23T12:04:20.683Z,20.3
2022-09-23T12:05:19.165Z,20.3
2022-09-23T12:06:19.050Z,20.3
2022-09-23T12:07:19.066Z,20.5
2022-09-23T12:08:19.081Z,20.5
2022-09-23T12:09:27.205Z,20.5
2022-09-23T12:10:19.285Z,20.5
2022-09-23T12:11:19.078Z,20.5
2022-09-23T12:12:19.084Z,20.5
2022-09-23T12:13:19.065Z,20.5
2022-09-23T12:14:19.060Z,20.5
2022-09-23T12:15:19.069Z,20.5
2022-09-23T12:16:19.125Z,20.5
2022-09-23T12:17:19.072Z,20.5
2022-09-23T12:18:22.904Z,20.5
2022-09-23T12:19:19.083Z,20.5
2022-09-23T12:20:19.068Z,20.6
2022-09-23T12:21:39.049Z,20.6
2022-09-23T12:22:19.065Z,20.6
2022-09-23T12:23:19.073Z,20.6
2022-09-23T12:24:19.383Z,20.6
2022-09-23T12:25:19.084Z,20.6
2022-09-23T12:26:19.072Z,20.6
2022-09-23T12:27:19.067Z,20.6
2022-09-23T12:28:19.066Z,20.7
2022-09-23T12:29:19.107Z,20.7
2022-09-23T12:30:19.154Z,20.7
2022-09-23T12:31:19.102Z,20.7
2022-09-23T12:32:19.158Z,20.8
2022-09-23T12:33:19.060Z,20.8
2022-09-23T12:34:19.062Z,20.8
2022-09-23T12:35:19.058Z,20.8
2022-09-23T12:36:19.087Z,20.8
2022-09-23T12:37:19.084Z,20.8
2022-09-23T12:38:19.061Z,20.7
2022-09-23T12:39:19.068Z,20.7
2022-09-23T12:40:19.155Z,20.6
2022-09-23T12:41:19.092Z,20.5
2022-09-23T12:42:19.073Z,20.3
2022-09-23T12:43:19.086Z,20.3
2022-09-23T12:44:19.088Z,20.3
2022-09-23T12:45:19.074Z,20.3
2022-09-23T12:46:19.113Z,20.3
2022-09-23T12:47:19.073Z,20.2
2022-09-23T12:48:19.081Z,20.3
2022-09-23T12:49:19.049Z,20.2
2022-09-23T12:50:23.751Z,20.2
2022-09-23T12:51:19.122Z,20.2
2022-09-23T12:52:19.065Z,20.1
2022-09-23T12:53:19.321Z,20.1
2022-09-23T12:54:19.622Z,20.1
2022-09-23T12:55:20.049Z,20.1
2022-09-23T12:56:20.079Z,20
2022-09-23T12:57:20.289Z,20
2022-09-23T12:58:19.637Z,20
2022-09-23T12:59:20.033Z,19.9
2022-09-23T13:00:19.114Z,19.9
2022-09-23T13:01:19.496Z,19.9
2022-09-23T13:02:19.564Z,19.9
2022-09-23T13:03:19.344Z,19.9
2022-09-23T13:04:19.143Z,19.9
2022-09-23T13:05:19.084Z,19.9
2022-09-23T13:06:19.392Z,19.9
2022-09-23T13:07:19.814Z,19.9
2022-09-23T13:08:19.078Z,19.9
2022-09-23T13:09:19.085Z,19.9
2022-09-23T13:10:19.062Z,19.9
2022-09-23T13:11:19.080Z,19.9
2022-09-23T13:12:19.095Z,19.9
2022-09-23T13:13:19.075Z,19.9
2022-09-23T13:14:19.072Z,19.9
2022-09-23T13:15:19.059Z,19.9
2022-09-23T13:16:19.124Z,20
2022-09-23T13:17:19.054Z,20
2022-09-23T13:18:19.084Z,20
2022-09-23T13:19:19.048Z,19.9
2022-09-23T13:20:19.155Z,20
2022-09-23T13:21:19.065Z,20
2022-09-23T13:22:19.057Z,19.9
2022-09-23T13:23:19.315Z,19.9
2022-09-23T13:24:19.160Z,19.9
2022-09-23T13:25:19.132Z,19.9
2022-09-23T13:26:19.075Z,19.9
2022-09-23T13:27:19.063Z,19.9
2022-09-23T13:28:19.351Z,20
2022-09-23T13:29:19.162Z,19.9
2022-09-23T13:30:22.427Z,19.9
2022-09-23T13:31:19.242Z,19.9
2022-09-23T13:32:19.083Z,20
2022-09-23T13:33:19.067Z,20
2022-09-23T13:34:19.388Z,20
2022-09-23T13:35:19.081Z,20
2022-09-23T13:36:19.080Z,20